createdAt,value
2019-05-07T00:08:32.299Z,94442.95
2019-05-07T00:18:35.389Z,94427.83
2019-05-07T00:28:38.339Z,94411.91
2019-05-07T00:38:44.160Z,94413.87
2019-05-07T00:48:47.152Z,94409.44
2019-05-07T00:58:52.517Z,94396.28
2019-05-07T01:08:55.004Z,94387.23
2019-05-07T01:18:57.976Z,94385.98
2019-05-07T01:29:02.967Z,94370.84
2019-05-07T01:39:06.570Z,94367.70
2019-05-07T01:49:09.628Z,94360.82
2019-05-07T01:59:12.610Z,94350.30
2019-05-07T02:09:28.709Z,94354.47
2019-05-07T02:19:32.950Z,94356.23
2019-05-07T02:29:38.178Z,94353.44
2019-05-07T02:39:49.621Z,94343.97
2019-05-07T02:49:57.266Z,94346.82
2019-05-07T03:00:04.052Z,94338.93
2019-05-07T03:10:05.984Z,94331.44
2019-05-07T03:20:14.016Z,94330.39
2019-05-07T03:30:45.598Z,94337.94
2019-05-07T03:40:47.893Z,94337.37
2019-05-07T03:50:52.803Z,94333.83
2019-05-07T04:00:55.731Z,94325.42
2019-05-07T04:10:58.684Z,94338.34
2019-05-07T04:21:03.707Z,94336.41
2019-05-07T04:31:06.594Z,94337.19
2019-05-07T04:41:09.649Z,94348.22
2019-05-07T04:51:15.048Z,94354.29
2019-05-07T05:01:19.946Z,94340.67
2019-05-07T05:11:23.714Z,94338.29
2019-05-07T05:21:59.077Z,94348.78
2019-05-07T05:32:02.403Z,94355.80
2019-05-07T05:42:14.670Z,94350.12
2019-05-07T05:52:32.846Z,94353.59
2019-05-07T06:02:54.747Z,94347.14
2019-05-07T06:13:09.879Z,94334.07
2019-05-07T06:23:27.985Z,94332.19
2019-05-07T06:33:32.415Z,94328.19
2019-05-07T06:43:43.357Z,94331.86
2019-05-07T06:53:46.328Z,94324.61
2019-05-07T07:04:17.991Z,94318.91
2019-05-07T07:14:22.742Z,94314.78
2019-05-07T07:24:25.865Z,94299.08
2019-05-07T07:34:33.293Z,94291.64
2019-05-07T07:44:36.325Z,94285.75
2019-05-07T07:54:39.310Z,94274.55
2019-05-07T08:04:42.656Z,94265.70
2019-05-07T08:14:45.778Z,94256.35
2019-05-07T08:24:48.769Z,94267.73
2019-05-07T08:35:03.449Z,94264.80
2019-05-07T08:45:25.050Z,94261.23
2019-05-07T08:55:28.185Z,94236.72
2019-05-07T09:05:32.370Z,94236.58
2019-05-07T09:15:35.688Z,94222.14
2019-05-07T09:25:47.382Z,94216.36
2019-05-07T09:35:52.843Z,94198.64
2019-05-07T09:45:56.085Z,94192.98
2019-05-07T09:55:59.079Z,94197.80
2019-05-07T10:06:03.413Z,94197.67
2019-05-07T10:16:07.746Z,94188.20
2019-05-07T10:26:12.178Z,94170.59
2019-05-07T10:36:15.470Z,94151.69
2019-05-07T10:46:37.691Z,94157.05
2019-05-07T10:56:41.905Z,94145.04
2019-05-07T11:06:45.173Z,94138.53
2019-05-07T11:17:07.727Z,94133.91
2019-05-07T11:27:11.886Z,94117.00
2019-05-07T11:37:15.080Z,94103.88
2019-05-07T11:47:24.653Z,94083.33
2019-05-07T11:57:27.644Z,94083.34
2019-05-07T12:07:32.616Z,94080.48
2019-05-07T12:17:35.646Z,94062.50
2019-05-07T12:27:39.166Z,94060.25
2019-05-07T12:37:42.825Z,94054.22
2019-05-07T12:47:47.134Z,94049.53
2019-05-07T12:57:51.874Z,94039.09
2019-05-07T13:07:55.044Z,94025.52
2019-05-07T13:17:57.996Z,94017.07
2019-05-07T13:28:02.677Z,94006.07
2019-05-07T13:38:24.140Z,94007.09
2019-05-07T13:48:27.295Z,94000.43
2019-05-07T13:58:32.745Z,93989.65
2019-05-07T14:08:38.010Z,93970.58
2019-05-07T14:18:41.002Z,93969.31
2019-05-07T14:28:43.971Z,93953.27
2019-05-07T14:38:48.461Z,93962.33
2019-05-07T14:48:52.080Z,93941.41
2019-05-07T14:58:55.735Z,93947.44
2019-05-07T15:08:58.831Z,93939.11
2019-05-07T15:19:02.558Z,93926.92
2019-05-07T15:29:13.368Z,93921.45
2019-05-07T15:39:16.401Z,93916.75
2019-05-07T15:49:21.545Z,93919.02
2019-05-07T15:59:24.543Z,93925.70
2019-05-07T16:09:42.642Z,93925.33
2019-05-07T16:19:47.583Z,93914.72
2019-05-07T16:29:52.507Z,93904.72
2019-05-07T16:39:55.487Z,93895.81
2019-05-07T16:49:59.260Z,93889.55
2019-05-07T17:00:03.228Z,93880.23
2019-05-07T17:10:06.660Z,93880.00
2019-05-07T17:20:12.688Z,93879.53
2019-05-07T17:30:16.041Z,93879.89
2019-05-07T17:40:19.109Z,93858.57
2019-05-07T17:50:26.953Z,93849.61
2019-05-07T18:00:30.082Z,93850.30
2019-05-07T18:10:35.206Z,93841.30
2019-05-07T18:20:38.427Z,93839.35
2019-05-07T18:30:41.560Z,93837.08
2019-05-07T18:40:44.594Z,93839.19
2019-05-07T18:50:47.587Z,93831.08
2019-05-07T19:00:54.286Z,93838.52
2019-05-07T19:10:57.681Z,93849.36
2019-05-07T19:21:00.788Z,93849.98
2019-05-07T19:31:05.111Z,93857.69
2019-05-07T19:41:12.119Z,93862.22
2019-05-07T19:51:14.988Z,93857.72
2019-05-07T20:01:22.829Z,93869.05
2019-05-07T20:11:37.406Z,93856.28
2019-05-07T20:21:40.478Z,93866.03
2019-05-07T20:31:43.508Z,93853.42
2019-05-07T20:41:46.515Z,93825.16
2019-05-07T20:51:49.539Z,93799.06
2019-05-07T21:01:52.771Z,93806.23
2019-05-07T21:11:55.832Z,93800.38
2019-05-07T21:21:58.832Z,93806.47
2019-05-07T21:32:03.261Z,93800.01
2019-05-07T21:42:06.573Z,93795.44
2019-05-07T21:52:09.514Z,93798.39
2019-05-07T22:02:18.278Z,93791.78
2019-05-07T22:12:22.580Z,93775.17
2019-05-07T22:22:25.726Z,93779.20
2019-05-07T22:32:36.734Z,93767.13
2019-05-07T22:42:39.744Z,93764.28
2019-05-07T22:52:42.805Z,93763.39
2019-05-07T23:02:45.799Z,93746.06
2019-05-07T23:12:48.771Z,93728.50
2019-05-07T23:22:52.077Z,93709.92
2019-05-07T23:32:55.179Z,93695.48
2019-05-07T23:43:02.897Z,93690.52
2019-05-07T23:53:05.797Z,93691.77
